Crown Hill, West Virginia
Current Conditions -  °F | °C
As of 7:54 PM on Saturday 25 Oct 2014 (Local Time) from KCRW Reporting Station
Clear Clear  
Wind Chill: 61°   Ceiling: Unl
Heat Index: 61°   Visibility: 10mi
Dew Point: 49°   Wind: 8mph
Humidity: 64%   Direction: 230°SW
Pressure: 29.92"   Gusts: NA
Location:  38.2184°N, 81.4434°W
Report Text: KCRW 252354Z 23007KT 10SM CLR 16/09 A2992 RMK AO2 SLP130 T01610094 10194 20161 53001 $
Loading
Personal Weather Stations






























Interactive Weather Map
Tropical Storm Tracking
New forecast layout! Learn more

10-Day Weather Forecast

Advertisements
Track Severe Weather on mobile